Aérodrome :
LOGIN :

S'inscrire | Disclaimer

   EN    FR    IT 

 










Légende :    VFR   VFR Marginal   IFR   IFR Intensif   IFR Très Intensif
Visi : 
Plafond : 
>= 8 km
>= 3000ft
5 à 8 km
1000 à 3000 ft
1500m à 5 km
500 à 1000 ft
800 à 1500m
200 à 500 ft
< 800m
< 200 ft
Symboles :   Orages  Brouillard  Fortes neiges  Fortes précipitations  Vent > 20 kt
SIGMETs :   Divers  Orages  Givrage  Turbulence  Onde Orograph.  Cendres Volcan.






- Altitude de l'aérodrome : -13 ft
- Code IATA : LEY


EHLE - Lelystad

DERNIER METAR :
  • 070125Z AUTO 27012KT 9999 // BKN014 BKN017 OVC030 09/08 Q1004 RE//

METARs EXPIRÉS :
  • 070055Z AUTO 27013KT 9999 // SCT016 BKN020 BKN024 09/08 Q1003 RE//
  • 070025Z AUTO 27013KT 240V300 9999 // SCT014 BKN019 OVC044 09/08 Q1003 RE//
  • 062355Z AUTO 27016KT 250V310 9999 // FEW013 FEW015CB OVC016 09/08 Q1002 RE//
  • 062325Z AUTO 26016KT 9999 // FEW012 BKN015CB OVC019 09/08 Q1002 RE//
  • 062255Z AUTO 27016G26KT 6000 // FEW005 SCT010 BKN013 BKN015CB 09/08 Q1001 RE//

TAF TAF EHLE
Valide du 07 à 00h jusqu'au 08 à 06h UTC


062316Z 0700/0806 27013KT 9999 SCT018
PROB40
TEMPO 0700/0716 7000 -SHRA RA FEW016TCU BKN018
BECMG 0715/0718 23008KT
BECMG 0721/0724 20014KT
BECMG 0803/0806 21020G30KT BKN015



MET'MAP, la Météo Aéronautique d'un coup d'oeil ! - Copyright ORBIFLY Décembre 2007 - Disclaimer

ORBIFLY MET'MAP TEAM :

Programmation & Développement : Alexandra Zaïnal
Sur une idée originale de : Baudouin d'Aumeries
Assistance à la programmation : Marc-Olivier Méhu
Soutien technique & logistique : Manuel Goepfert

Contact : metmap@orbifly.com




SOURCES & CREDITS :

   NOAA